createdAt,value
2019-03-27T00:00:04.537Z,7.51
2019-03-27T00:02:47.553Z,7.48
2019-03-27T00:05:38.429Z,7.46
2019-03-27T00:08:21.911Z,7.44
2019-03-27T00:11:16.029Z,7.43
2019-03-27T00:14:17.320Z,7.43
2019-03-27T00:17:08.167Z,7.42
2019-03-27T00:19:51.954Z,7.41
2019-03-27T00:22:42.827Z,7.41
2019-03-27T00:25:26.441Z,7.40
2019-03-27T00:28:17.346Z,7.39
2019-03-27T00:31:00.631Z,7.38
2019-03-27T00:33:51.511Z,7.36
2019-03-27T00:36:42.392Z,7.36
2019-03-27T00:39:25.211Z,7.32
2019-03-27T00:42:16.150Z,7.28
2019-03-27T00:44:58.928Z,7.24
2019-03-27T00:47:51.895Z,7.19
2019-03-27T00:50:34.862Z,7.15
2019-03-27T00:53:25.801Z,7.11
2019-03-27T00:56:08.721Z,7.06
2019-03-27T00:58:52.305Z,7.03
2019-03-27T01:01:43.237Z,7.00
2019-03-27T01:04:26.806Z,6.94
2019-03-27T01:07:17.717Z,6.86
2019-03-27T01:10:20.790Z,6.86
2019-03-27T01:13:11.697Z,6.78
2019-03-27T01:15:55.295Z,6.73
2019-03-27T01:18:46.186Z,6.71
2019-03-27T01:21:29.504Z,6.67
2019-03-27T01:24:20.400Z,6.66
2019-03-27T01:27:04.214Z,6.65
2019-03-27T01:29:55.131Z,6.63
2019-03-27T01:32:38.016Z,6.62
2019-03-27T01:35:28.898Z,6.62
2019-03-27T01:38:12.434Z,6.63
2019-03-27T01:41:03.335Z,6.62
2019-03-27T01:43:47.031Z,6.64
2019-03-27T01:46:37.942Z,6.65
2019-03-27T01:49:20.956Z,6.66
2019-03-27T01:52:11.836Z,6.68
2019-03-27T01:54:55.488Z,6.70
2019-03-27T01:57:46.422Z,6.72
2019-03-27T02:00:29.335Z,6.71
2019-03-27T02:03:20.225Z,6.73
2019-03-27T02:06:03.537Z,6.73
2019-03-27T02:08:54.474Z,6.73
2019-03-27T02:11:38.160Z,6.74
2019-03-27T02:14:29.056Z,6.74
2019-03-27T02:17:11.961Z,6.76
2019-03-27T02:20:02.862Z,6.75
2019-03-27T02:22:45.717Z,6.77
2019-03-27T02:25:36.638Z,6.76
2019-03-27T02:28:20.184Z,6.74
2019-03-27T02:31:11.105Z,6.70
2019-03-27T02:33:54.840Z,6.68
2019-03-27T02:36:45.820Z,6.67
2019-03-27T02:39:36.713Z,6.64
2019-03-27T02:42:20.389Z,6.64
2019-03-27T02:45:11.303Z,6.65
2019-03-27T02:47:54.653Z,6.59
2019-03-27T02:50:37.465Z,6.59
2019-03-27T02:53:28.381Z,6.52
2019-03-27T02:56:31.426Z,6.51
2019-03-27T02:59:22.344Z,6.50
2019-03-27T03:02:05.609Z,6.46
2019-03-27T03:04:56.535Z,6.41
2019-03-27T03:07:39.934Z,6.37
2019-03-27T03:10:30.864Z,6.33
2019-03-27T03:13:13.793Z,6.26
2019-03-27T03:16:04.677Z,6.17
2019-03-27T03:18:48.058Z,6.13
2019-03-27T03:21:38.929Z,6.10
2019-03-27T03:24:22.444Z,6.07
2019-03-27T03:27:13.334Z,6.03
2019-03-27T03:29:56.223Z,6.01
2019-03-27T03:32:47.161Z,5.96
2019-03-27T03:35:30.928Z,5.97
2019-03-27T03:38:21.853Z,5.93
2019-03-27T03:41:05.029Z,5.87
2019-03-27T03:43:55.896Z,5.85
2019-03-27T03:46:39.117Z,5.84
2019-03-27T03:49:22.813Z,5.84
2019-03-27T03:52:13.810Z,5.89
2019-03-27T03:54:57.505Z,5.90
2019-03-27T03:57:40.937Z,5.93
2019-03-27T04:04:01.273Z,5.97
2019-03-27T04:06:52.238Z,5.99
2019-03-27T04:09:35.725Z,6.00
2019-03-27T04:12:26.641Z,6.02
2019-03-27T04:15:09.637Z,6.04
2019-03-27T04:18:00.498Z,6.08
2019-03-27T04:20:44.262Z,6.07
2019-03-27T04:23:35.168Z,6.05
2019-03-27T04:26:26.056Z,6.06
2019-03-27T04:29:09.148Z,6.06
2019-03-27T04:32:00.065Z,6.06
2019-03-27T04:34:46.936Z,6.06
2019-03-27T04:37:35.897Z,6.05
2019-03-27T04:40:18.985Z,6.05
2019-03-27T04:43:09.918Z,6.04
2019-03-27T04:45:53.072Z,6.04
2019-03-27T04:48:44.002Z,6.03
2019-03-27T04:51:26.979Z,6.03
2019-03-27T04:54:17.905Z,6.06
2019-03-27T04:57:01.193Z,6.08
2019-03-27T04:59:44.730Z,6.08
2019-03-27T05:02:35.620Z,6.11
2019-03-27T05:05:19.000Z,6.12
2019-03-27T05:08:09.905Z,6.14
2019-03-27T05:10:53.564Z,6.17
2019-03-27T05:13:44.420Z,6.21
2019-03-27T05:16:27.903Z,6.26
2019-03-27T05:19:18.843Z,6.29
2019-03-27T05:22:02.461Z,6.33
2019-03-27T05:24:53.338Z,6.36
2019-03-27T05:27:36.635Z,6.39
2019-03-27T05:30:46.320Z,6.40
2019-03-27T05:33:32.526Z,6.44
2019-03-27T05:36:22.277Z,6.45
2019-03-27T05:39:06.184Z,6.46
2019-03-27T05:41:57.067Z,6.48
2019-03-27T05:44:40.853Z,6.50
2019-03-27T05:47:31.706Z,6.50
2019-03-27T05:50:14.955Z,6.52
2019-03-27T05:53:05.829Z,6.54
2019-03-27T05:55:49.024Z,6.55
2019-03-27T05:58:39.928Z,6.58
2019-03-27T06:01:30.882Z,6.62
2019-03-27T06:04:13.874Z,6.64
2019-03-27T06:07:04.734Z,6.66
2019-03-27T06:09:47.947Z,6.67
2019-03-27T06:12:38.878Z,6.69
2019-03-27T06:15:22.551Z,6.70
2019-03-27T06:18:13.695Z,6.73
2019-03-27T06:20:56.548Z,6.73
2019-03-27T06:23:47.453Z,6.78
2019-03-27T06:26:31.031Z,6.85
2019-03-27T06:29:21.933Z,6.87
2019-03-27T06:32:05.460Z,6.91
2019-03-27T06:34:56.370Z,6.98
2019-03-27T06:37:39.233Z,7.06
2019-03-27T06:40:30.156Z,7.10
2019-03-27T06:43:13.344Z,7.17
2019-03-27T06:46:04.226Z,7.28
2019-03-27T06:48:47.207Z,7.37
2019-03-27T06:51:40.384Z,7.46
2019-03-27T06:54:43.047Z,7.53
2019-03-27T06:57:33.967Z,7.61
2019-03-27T07:00:17.559Z,7.63
2019-03-27T07:03:08.705Z,7.63
2019-03-27T07:05:52.425Z,7.67
2019-03-27T07:08:43.312Z,7.73
2019-03-27T07:11:26.254Z,7.71
2019-03-27T07:14:17.175Z,7.77
2019-03-27T07:17:00.586Z,7.77
2019-03-27T07:19:51.494Z,7.78
2019-03-27T07:22:34.936Z,7.80
2019-03-27T07:25:25.856Z,7.82
2019-03-27T07:28:09.449Z,7.87
2019-03-27T07:31:00.373Z,7.91
2019-03-27T07:33:44.046Z,8.00
2019-03-27T07:36:34.948Z,8.05
2019-03-27T07:39:16.844Z,8.15
2019-03-27T07:42:00.167Z,8.28
2019-03-27T07:44:51.112Z,8.52
2019-03-27T07:47:34.356Z,8.90
2019-03-27T07:50:25.261Z,9.11
2019-03-27T07:53:08.180Z,9.34
2019-03-27T07:55:59.078Z,9.53
2019-03-27T07:58:41.933Z,9.59
2019-03-27T08:01:25.748Z,9.97
2019-03-27T08:04:16.723Z,10.17
2019-03-27T08:06:59.753Z,9.95
2019-03-27T08:09:50.676Z,9.79
2019-03-27T08:12:34.179Z,9.97
2019-03-27T08:15:25.151Z,9.93
2019-03-27T08:18:08.514Z,9.91
2019-03-27T08:20:59.674Z,9.91
2019-03-27T08:23:43.339Z,9.99
2019-03-27T08:26:34.234Z,10.65
2019-03-27T08:29:18.040Z,11.40
2019-03-27T08:32:08.980Z,11.89
2019-03-27T08:34:59.919Z,11.68
2019-03-27T08:37:42.853Z,11.44
2019-03-27T08:40:33.793Z,11.18
2019-03-27T08:43:37.071Z,11.07
2019-03-27T08:46:28.027Z,11.92
2019-03-27T08:49:21.129Z,12.75
2019-03-27T08:52:03.543Z,13.65
2019-03-27T08:54:46.664Z,14.25
2019-03-27T08:57:56.319Z,14.90
2019-03-27T09:00:46.711Z,15.51
2019-03-27T09:03:37.620Z,15.58
2019-03-27T09:06:32.971Z,16.18
2019-03-27T09:09:13.556Z,16.86
2019-03-27T09:11:56.921Z,16.98
2019-03-27T09:14:47.935Z,17.41
2019-03-27T09:17:50.790Z,17.87
2019-03-27T09:20:41.695Z,17.43
2019-03-27T09:23:25.170Z,16.74
2019-03-27T09:26:16.123Z,15.75
2019-03-27T09:28:59.059Z,15.57
2019-03-27T09:31:49.976Z,15.16
2019-03-27T09:34:52.762Z,14.83
2019-03-27T09:37:43.656Z,14.29
2019-03-27T09:40:26.968Z,14.01
2019-03-27T09:43:17.870Z,13.92
2019-03-27T09:46:01.314Z,13.64
2019-03-27T09:48:52.203Z,13.37
2019-03-27T09:51:35.785Z,13.06
2019-03-27T09:54:26.669Z,12.86
2019-03-27T09:57:09.957Z,12.73
2019-03-27T10:00:00.865Z,12.57
2019-03-27T10:02:44.592Z,12.42
2019-03-27T10:05:35.513Z,12.44
2019-03-27T10:08:19.216Z,12.43
2019-03-27T10:11:10.152Z,12.57
2019-03-27T10:13:53.418Z,12.65
2019-03-27T10:16:44.361Z,13.54
2019-03-27T10:19:27.333Z,14.60
2019-03-27T10:22:18.254Z,14.99
2019-03-27T10:25:01.496Z,15.01
2019-03-27T10:27:52.414Z,15.24
2019-03-27T10:30:35.977Z,15.98
2019-03-27T10:33:26.900Z,16.44
2019-03-27T10:36:10.559Z,16.75
2019-03-27T10:38:53.674Z,16.35
2019-03-27T10:41:44.576Z,16.11
2019-03-27T10:44:27.437Z,16.21
2019-03-27T10:47:11.042Z,16.56
2019-03-27T10:50:01.946Z,16.83
2019-03-27T10:52:44.790Z,17.19
2019-03-27T10:55:35.681Z,17.75
2019-03-27T10:58:19.072Z,17.83
2019-03-27T11:01:10.047Z,17.13
2019-03-27T11:03:52.896Z,16.66
2019-03-27T11:06:43.791Z,16.03
2019-03-27T11:09:27.372Z,15.70
2019-03-27T11:12:18.343Z,15.43
2019-03-27T11:15:01.308Z,15.37
2019-03-27T11:17:52.238Z,15.27
2019-03-27T11:20:35.162Z,15.03
2019-03-27T11:23:26.160Z,14.86
2019-03-27T11:26:29.233Z,14.72
2019-03-27T11:29:20.214Z,14.54
2019-03-27T11:32:03.879Z,14.29
2019-03-27T11:34:54.818Z,14.14
2019-03-27T11:37:37.868Z,14.13
2019-03-27T11:40:28.808Z,14.13
2019-03-27T11:43:11.694Z,14.19
2019-03-27T11:46:02.637Z,14.55
2019-03-27T11:48:45.943Z,14.49
2019-03-27T11:51:36.894Z,14.46
2019-03-27T11:54:19.974Z,14.42
2019-03-27T11:57:10.909Z,14.29
2019-03-27T11:59:54.507Z,14.18
2019-03-27T12:02:45.433Z,14.23
2019-03-27T12:05:28.384Z,14.22
2019-03-27T12:08:19.281Z,14.17
2019-03-27T12:11:02.926Z,14.19
2019-03-27T12:13:53.821Z,14.12
2019-03-27T12:16:37.654Z,14.06
2019-03-27T12:19:28.614Z,14.08
2019-03-27T12:22:11.779Z,14.08
2019-03-27T12:25:02.705Z,14.12
2019-03-27T12:27:46.359Z,14.22
2019-03-27T12:30:37.283Z,14.55
2019-03-27T12:33:20.332Z,15.13
2019-03-27T12:36:11.249Z,15.40
2019-03-27T12:38:54.143Z,14.91
2019-03-27T12:41:45.114Z,14.55
2019-03-27T12:44:28.595Z,13.85
2019-03-27T12:47:12.396Z,13.72
2019-03-27T12:50:03.321Z,13.85
2019-03-27T12:52:46.212Z,14.00
2019-03-27T12:55:37.126Z,14.36
2019-03-27T12:58:20.342Z,14.49
2019-03-27T13:01:11.347Z,14.57
2019-03-27T13:03:54.208Z,14.38
2019-03-27T13:06:45.162Z,14.23
2019-03-27T13:09:28.772Z,14.37
2019-03-27T13:12:19.690Z,14.41
2019-03-27T13:15:02.846Z,14.36
2019-03-27T13:17:53.761Z,14.19
2019-03-27T13:20:37.164Z,14.21
2019-03-27T13:23:28.088Z,14.13
2019-03-27T13:26:11.736Z,14.16
2019-03-27T13:29:02.665Z,14.45
2019-03-27T13:31:45.507Z,14.92
2019-03-27T13:34:36.441Z,15.44
2019-03-27T13:37:19.997Z,16.07
2019-03-27T13:43:40.541Z,16.88
2019-03-27T13:49:39.671Z,17.54
2019-03-27T13:52:30.612Z,17.48
2019-03-27T13:55:13.580Z,17.40
2019-03-27T13:58:04.508Z,17.23
2019-03-27T14:00:47.869Z,17.01
2019-03-27T14:03:38.770Z,16.76
2019-03-27T14:06:22.430Z,16.57
2019-03-27T14:09:13.402Z,16.44
2019-03-27T14:11:56.928Z,16.19
2019-03-27T14:14:50.488Z,15.95
2019-03-27T14:17:53.219Z,15.73
2019-03-27T14:20:44.086Z,15.47
2019-03-27T14:23:27.528Z,15.35
2019-03-27T14:26:18.416Z,15.02
2019-03-27T14:29:01.284Z,14.84
2019-03-27T14:31:52.208Z,14.87
2019-03-27T14:34:35.054Z,14.67
2019-03-27T14:37:25.939Z,14.59
2019-03-27T14:40:10.745Z,14.64
2019-03-27T14:43:01.691Z,14.67
2019-03-27T14:45:44.961Z,14.75
2019-03-27T14:48:28.656Z,14.88
2019-03-27T14:51:19.569Z,14.84
2019-03-27T14:54:03.096Z,14.88
2019-03-27T14:56:46.606Z,15.00
2019-03-27T14:59:37.514Z,15.06
2019-03-27T15:02:21.152Z,15.08
2019-03-27T15:08:42.339Z,15.63
2019-03-27T15:11:33.251Z,16.32
2019-03-27T15:14:24.162Z,16.76
2019-03-27T15:17:07.771Z,16.72
2019-03-27T15:19:58.759Z,16.67
2019-03-27T15:22:41.657Z,16.60
2019-03-27T15:25:32.566Z,16.35
2019-03-27T15:28:15.827Z,16.05
2019-03-27T15:31:19.750Z,15.94
2019-03-27T15:34:11.883Z,15.73
2019-03-27T15:37:02.782Z,15.71
2019-03-27T15:39:45.767Z,15.58
2019-03-27T15:42:37.401Z,15.50
2019-03-27T15:45:41.788Z,15.40
2019-03-27T15:48:25.162Z,15.33
2019-03-27T15:51:16.063Z,15.30
2019-03-27T15:54:07.094Z,15.31
2019-03-27T15:56:50.476Z,15.13
2019-03-27T15:59:41.385Z,15.02
2019-03-27T16:02:24.427Z,14.87
2019-03-27T16:05:15.333Z,14.70
2019-03-27T16:07:58.860Z,14.60
2019-03-27T16:10:49.734Z,14.51
2019-03-27T16:13:33.331Z,14.46
2019-03-27T16:16:24.279Z,14.41
2019-03-27T16:19:07.258Z,14.36
2019-03-27T16:21:58.200Z,14.36
2019-03-27T16:24:41.276Z,14.31
2019-03-27T16:27:32.278Z,14.19
2019-03-27T16:30:17.135Z,14.11
2019-03-27T16:33:07.843Z,14.09
2019-03-27T16:35:51.660Z,13.99
2019-03-27T16:38:35.165Z,13.92
2019-03-27T16:41:26.140Z,13.85
2019-03-27T16:44:09.885Z,13.79
2019-03-27T16:47:00.822Z,13.74
2019-03-27T16:49:44.357Z,13.64
2019-03-27T16:52:35.268Z,13.52
2019-03-27T16:55:38.150Z,13.37
2019-03-27T16:58:29.078Z,13.28
2019-03-27T17:01:11.959Z,13.25
2019-03-27T17:04:02.842Z,13.20
2019-03-27T17:06:46.575Z,13.15
2019-03-27T17:09:37.458Z,13.13
2019-03-27T17:12:20.524Z,13.06
2019-03-27T17:18:47.520Z,12.85
2019-03-27T17:21:30.400Z,12.73
2019-03-27T17:24:21.328Z,12.67
2019-03-27T17:27:04.427Z,12.63
2019-03-27T17:29:55.356Z,12.59
2019-03-27T17:32:38.822Z,12.55
2019-03-27T17:35:22.252Z,12.51
2019-03-27T17:38:13.156Z,12.35
2019-03-27T17:40:56.604Z,12.26
2019-03-27T17:43:47.540Z,12.19
2019-03-27T17:46:31.034Z,12.13
2019-03-27T17:49:21.981Z,12.09
2019-03-27T17:52:05.116Z,12.02
2019-03-27T17:54:55.989Z,11.95
2019-03-27T17:57:39.525Z,11.92
2019-03-27T18:01:20.960Z,11.89
2019-03-27T18:04:04.390Z,11.82
2019-03-27T18:06:55.259Z,11.74
2019-03-27T18:09:38.234Z,11.69
2019-03-27T18:12:29.156Z,11.67
2019-03-27T18:15:12.789Z,11.64
2019-03-27T18:18:03.691Z,11.59
2019-03-27T18:20:46.839Z,11.53
2019-03-27T18:23:45.760Z,11.47
2019-03-27T18:26:43.000Z,11.43
2019-03-27T18:29:33.914Z,11.39
2019-03-27T18:32:17.064Z,11.37
2019-03-27T18:35:08.196Z,11.34
2019-03-27T18:37:51.655Z,11.32
2019-03-27T18:40:42.554Z,11.34
2019-03-27T18:43:33.483Z,11.32
2019-03-27T18:46:36.558Z,11.31
2019-03-27T18:49:27.438Z,11.31
2019-03-27T18:52:10.779Z,11.31
2019-03-27T18:55:01.733Z,11.34
2019-03-27T18:57:59.024Z,11.31
2019-03-27T19:00:37.612Z,11.31
2019-03-27T19:03:20.889Z,11.31
2019-03-27T19:06:11.772Z,11.31
2019-03-27T19:08:54.954Z,11.31
2019-03-27T19:11:45.842Z,11.30
2019-03-27T19:14:28.694Z,11.30
2019-03-27T19:17:19.638Z,11.31
2019-03-27T19:20:03.418Z,11.30
2019-03-27T19:22:54.350Z,11.28
2019-03-27T19:25:37.575Z,11.28
2019-03-27T19:28:28.473Z,11.26
2019-03-27T19:31:11.516Z,11.25
2019-03-27T19:34:02.465Z,11.26
2019-03-27T19:36:45.711Z,11.23
2019-03-27T19:39:36.625Z,11.22
2019-03-27T19:42:20.332Z,11.23
2019-03-27T19:45:11.427Z,11.21
2019-03-27T19:47:54.455Z,11.24
2019-03-27T19:50:45.328Z,11.23
2019-03-27T19:53:28.493Z,11.21
2019-03-27T19:56:19.411Z,11.20
2019-03-27T19:59:02.725Z,11.18
2019-03-27T20:01:53.650Z,11.19
2019-03-27T20:04:37.339Z,11.19
2019-03-27T20:07:35.960Z,11.19
2019-03-27T20:10:33.158Z,11.20
2019-03-27T20:13:24.056Z,11.22
2019-03-27T20:16:07.585Z,11.22
2019-03-27T20:18:58.523Z,11.21
2019-03-27T20:21:41.419Z,11.18
2019-03-27T20:24:40.901Z,11.10
2019-03-27T20:27:37.581Z,11.01
2019-03-27T20:30:28.638Z,10.95
2019-03-27T20:33:11.596Z,10.92
2019-03-27T20:35:54.416Z,10.96
2019-03-27T20:38:45.625Z,11.04
2019-03-27T20:41:29.403Z,10.85
2019-03-27T20:44:20.352Z,10.78
2019-03-27T20:47:03.645Z,10.79
2019-03-27T20:49:54.550Z,10.78
2019-03-27T20:52:37.641Z,10.73
2019-03-27T20:55:30.623Z,10.68
2019-03-27T20:58:33.757Z,10.65
2019-03-27T21:01:24.670Z,10.68
2019-03-27T21:04:08.467Z,10.65
2019-03-27T21:06:59.360Z,10.56
2019-03-27T21:09:42.801Z,10.50
2019-03-27T21:12:33.732Z,10.47
2019-03-27T21:15:24.686Z,10.42
2019-03-27T21:18:08.293Z,10.48
2019-03-27T21:20:59.255Z,10.47
2019-03-27T21:23:42.723Z,10.41
2019-03-27T21:26:34.535Z,10.40
2019-03-27T21:29:25.512Z,10.40
2019-03-27T21:32:09.096Z,10.40
2019-03-27T21:35:00.072Z,10.44
2019-03-27T21:37:43.038Z,10.46
2019-03-27T21:40:33.996Z,10.50
2019-03-27T21:43:17.706Z,10.50
2019-03-27T21:46:08.629Z,10.44
2019-03-27T21:48:52.136Z,10.46
2019-03-27T21:51:43.068Z,10.46
2019-03-27T21:54:25.974Z,10.43
2019-03-27T21:57:16.914Z,10.42
2019-03-27T22:00:00.870Z,10.39
2019-03-27T22:02:51.845Z,10.36
2019-03-27T22:05:55.020Z,10.38
2019-03-27T22:08:45.961Z,10.33
2019-03-27T22:11:29.601Z,10.30
2019-03-27T22:17:23.245Z,10.25
2019-03-27T22:20:14.170Z,10.24
2019-03-27T22:22:57.835Z,10.24
2019-03-27T22:25:48.890Z,10.23
2019-03-27T22:28:31.916Z,10.22
2019-03-27T22:31:22.888Z,10.21
2019-03-27T22:34:05.734Z,10.22
2019-03-27T22:36:48.592Z,10.24
2019-03-27T22:39:39.554Z,10.25
2019-03-27T22:42:22.532Z,10.25
2019-03-27T22:45:13.589Z,10.25
2019-03-27T22:47:58.016Z,10.26
2019-03-27T22:50:48.983Z,10.27
2019-03-27T22:53:39.917Z,10.26
2019-03-27T22:56:22.834Z,10.28
2019-03-27T22:59:13.791Z,10.27
2019-03-27T23:01:57.268Z,10.27
2019-03-27T23:04:48.184Z,10.27
2019-03-27T23:07:31.882Z,10.26
2019-03-27T23:10:22.861Z,10.27
2019-03-27T23:13:05.938Z,10.27
2019-03-27T23:15:56.870Z,10.25
2019-03-27T23:18:40.708Z,10.25
2019-03-27T23:21:31.702Z,10.25
2019-03-27T23:24:14.795Z,10.24
2019-03-27T23:27:05.750Z,10.26
2019-03-27T23:29:48.659Z,10.26
2019-03-27T23:32:39.613Z,10.25
2019-03-27T23:35:22.531Z,10.24
2019-03-27T23:38:06.329Z,10.23
2019-03-27T23:40:57.258Z,10.21
2019-03-27T23:43:40.699Z,10.22
2019-03-27T23:46:31.637Z,10.22
2019-03-27T23:49:14.724Z,10.22
2019-03-27T23:52:05.638Z,10.22
2019-03-27T23:54:49.253Z,10.21
2019-03-27T23:57:40.172Z,10.22
